createdAt,value
2022-12-29T00:01:38.078Z,6.50
2022-12-29T00:06:40.643Z,6.40
2022-12-29T00:11:43.636Z,6.40
2022-12-29T00:16:46.765Z,6.20
2022-12-29T00:22:07.874Z,6.20
2022-12-29T00:27:31.807Z,6.20
2022-12-29T00:32:52.971Z,6.20
2022-12-29T00:38:17.032Z,6.00
2022-12-29T00:43:38.819Z,6.10
2022-12-29T00:49:04.226Z,6.00
2022-12-29T00:54:06.685Z,6.10
2022-12-29T00:59:11.673Z,6.10
2022-12-29T01:04:14.685Z,6.10
2022-12-29T01:09:57.124Z,6.10
2022-12-29T01:14:59.596Z,6.20
2022-12-29T01:20:02.830Z,6.10
2022-12-29T01:25:06.512Z,6.20
2022-12-29T01:30:10.390Z,6.20
2022-12-29T01:35:12.928Z,6.30
2022-12-29T01:40:15.464Z,6.30
2022-12-29T01:45:19.201Z,6.40
2022-12-29T01:50:30.499Z,6.40
2022-12-29T01:55:41.066Z,6.50
2022-12-29T02:00:44.510Z,6.50
2022-12-29T02:06:01.922Z,6.60
2022-12-29T02:11:04.807Z,6.60
2022-12-29T02:16:34.228Z,6.70
2022-12-29T02:21:48.127Z,6.70
2022-12-29T02:27:17.476Z,6.70
2022-12-29T02:32:31.768Z,6.80
2022-12-29T02:38:05.047Z,6.90
2022-12-29T02:43:32.920Z,7.10
2022-12-29T02:48:53.181Z,7.20
2022-12-29T02:54:15.623Z,7.20
2022-12-29T02:59:18.956Z,7.00
2022-12-29T03:04:38.182Z,7.00
2022-12-29T03:09:49.561Z,7.00
2022-12-29T03:15:32.111Z,7.10
2022-12-29T03:20:46.225Z,7.00
2022-12-29T03:25:54.783Z,6.90
2022-12-29T03:31:00.099Z,6.90
2022-12-29T03:36:08.777Z,6.90
2022-12-29T03:41:17.495Z,6.90
2022-12-29T03:46:21.455Z,6.80
2022-12-29T03:51:24.205Z,6.90
2022-12-29T03:56:27.527Z,6.90
2022-12-29T04:01:30.321Z,6.80
2022-12-29T04:06:33.188Z,6.60
2022-12-29T04:11:39.799Z,6.60
2022-12-29T04:16:42.841Z,6.50
2022-12-29T04:21:45.508Z,6.50
2022-12-29T04:26:48.104Z,6.50
2022-12-29T04:32:08.620Z,6.50
2022-12-29T04:37:16.325Z,6.50
2022-12-29T04:42:19.120Z,6.50
2022-12-29T04:47:22.400Z,6.50
2022-12-29T04:52:37.683Z,6.50
2022-12-29T04:57:41.763Z,6.50
2022-12-29T05:02:46.498Z,6.70
2022-12-29T05:07:50.705Z,7.20
2022-12-29T05:12:53.473Z,7.40
2022-12-29T05:17:56.496Z,7.80
2022-12-29T05:23:00.413Z,7.60
2022-12-29T05:28:03.509Z,7.90
2022-12-29T05:33:26.121Z,8.20
2022-12-29T05:38:28.881Z,7.90
2022-12-29T05:43:31.729Z,7.50
2022-12-29T05:49:03.836Z,7.20
2022-12-29T05:54:14.489Z,7.50
2022-12-29T05:59:17.939Z,7.40
2022-12-29T06:04:20.805Z,7.30
2022-12-29T06:09:24.212Z,7.30
2022-12-29T06:14:27.681Z,7.30
2022-12-29T06:19:30.520Z,7.20
2022-12-29T06:24:33.116Z,7.10
2022-12-29T06:29:38.134Z,7.20
2022-12-29T06:34:40.719Z,7.10
2022-12-29T06:39:44.574Z,7.10
2022-12-29T06:44:48.682Z,7.20
2022-12-29T06:49:51.448Z,7.10
2022-12-29T06:54:54.006Z,7.10
2022-12-29T06:59:59.452Z,7.10
2022-12-29T07:05:02.002Z,7.10
2022-12-29T07:10:04.792Z,7.10
2022-12-29T07:15:10.290Z,7.10
2022-12-29T07:20:12.959Z,7.20
2022-12-29T07:25:15.551Z,7.20
2022-12-29T07:30:21.697Z,7.30
2022-12-29T07:35:24.189Z,7.40
2022-12-29T07:40:26.658Z,7.40
2022-12-29T07:45:31.501Z,7.50
2022-12-29T07:50:49.438Z,7.60
2022-12-29T07:55:51.959Z,7.60
2022-12-29T08:00:58.246Z,7.70
2022-12-29T08:06:00.668Z,7.70
2022-12-29T08:11:03.406Z,7.90
2022-12-29T08:16:06.218Z,7.90
2022-12-29T08:21:08.713Z,7.80
2022-12-29T08:26:12.008Z,7.80
2022-12-29T08:31:14.971Z,7.80
2022-12-29T08:36:17.544Z,7.80
2022-12-29T08:41:20.047Z,7.80
2022-12-29T08:46:22.775Z,7.90
2022-12-29T08:51:25.453Z,7.90
2022-12-29T08:56:28.651Z,7.90
2022-12-29T09:01:34.742Z,7.90
2022-12-29T09:06:40.412Z,7.90
2022-12-29T09:11:43.594Z,8.00
2022-12-29T09:17:04.903Z,8.10
2022-12-29T09:22:07.920Z,8.20
2022-12-29T09:27:12.625Z,8.20
2022-12-29T09:32:18.503Z,8.40
2022-12-29T09:37:22.505Z,8.60
2022-12-29T09:42:31.072Z,8.80
2022-12-29T09:47:33.775Z,8.90
2022-12-29T09:52:49.693Z,9.00
2022-12-29T09:58:06.449Z,9.10
2022-12-29T10:03:23.024Z,9.20
2022-12-29T10:08:38.608Z,9.00
2022-12-29T10:14:02.786Z,8.90
2022-12-29T10:19:20.134Z,8.90
2022-12-29T10:24:23.316Z,9.20
2022-12-29T10:29:34.803Z,9.40
2022-12-29T10:34:45.116Z,10.60
2022-12-29T10:39:51.856Z,10.60
2022-12-29T10:44:58.514Z,11.50
2022-12-29T10:50:03.250Z,12.00
2022-12-29T10:55:18.632Z,12.50
2022-12-29T11:00:22.805Z,12.80
2022-12-29T11:05:59.471Z,12.80
2022-12-29T11:11:07.748Z,13.20
2022-12-29T11:16:13.202Z,13.10
2022-12-29T11:21:46.151Z,13.20
2022-12-29T11:26:50.916Z,12.90
2022-12-29T11:32:00.105Z,12.70
2022-12-29T11:37:12.128Z,12.60
2022-12-29T11:42:20.663Z,11.90
2022-12-29T11:47:34.525Z,11.80
2022-12-29T11:52:40.625Z,12.10
2022-12-29T11:57:45.172Z,13.20
2022-12-29T12:03:05.944Z,13.10
2022-12-29T12:08:21.310Z,13.60
2022-12-29T12:13:36.823Z,13.40
2022-12-29T12:19:02.348Z,13.40
2022-12-29T12:24:35.129Z,14.30
2022-12-29T12:30:08.561Z,14.30
2022-12-29T12:35:23.968Z,14.10
2022-12-29T12:40:47.579Z,14.30
2022-12-29T12:46:11.058Z,14.40
2022-12-29T12:51:39.719Z,14.40
2022-12-29T12:56:54.462Z,13.10
2022-12-29T13:02:21.224Z,11.40
2022-12-29T13:07:45.730Z,10.80
2022-12-29T13:13:13.923Z,11.10
2022-12-29T13:18:54.710Z,11.90
2022-12-29T13:24:12.057Z,12.00
2022-12-29T13:29:43.528Z,11.40
2022-12-29T13:34:46.605Z,11.00
2022-12-29T13:40:15.764Z,10.80
2022-12-29T13:45:21.893Z,10.60
2022-12-29T13:50:28.281Z,10.60
2022-12-29T13:55:58.440Z,10.60
2022-12-29T14:01:20.179Z,10.40
2022-12-29T14:06:31.890Z,10.60
2022-12-29T14:11:39.847Z,10.60
2022-12-29T14:16:43.987Z,10.50
2022-12-29T14:22:03.230Z,10.50
2022-12-29T14:27:11.573Z,10.40
2022-12-29T14:32:26.342Z,10.10
2022-12-29T14:37:33.117Z,10.00
2022-12-29T14:42:36.336Z,9.90
2022-12-29T14:47:44.359Z,9.80
2022-12-29T14:53:02.408Z,9.70
2022-12-29T14:58:15.238Z,9.80
2022-12-29T15:03:23.976Z,9.90
2022-12-29T15:08:34.180Z,9.70
2022-12-29T15:13:43.443Z,9.70
2022-12-29T15:18:46.011Z,9.60
2022-12-29T15:23:49.544Z,9.50
2022-12-29T15:28:53.982Z,9.40
2022-12-29T15:34:10.022Z,9.50
2022-12-29T15:39:29.196Z,9.40
2022-12-29T15:44:42.683Z,9.40
2022-12-29T15:49:49.487Z,9.60
2022-12-29T15:54:54.525Z,9.60
2022-12-29T15:59:57.535Z,10.40
2022-12-29T16:10:37.930Z,11.10
2022-12-29T16:15:40.621Z,11.50
2022-12-29T16:20:44.013Z,11.70
2022-12-29T16:25:46.693Z,11.90
2022-12-29T16:31:00.518Z,12.20
2022-12-29T16:36:03.146Z,12.20
2022-12-29T16:41:05.753Z,12.20
2022-12-29T16:46:29.837Z,12.10
2022-12-29T16:51:36.574Z,11.80
2022-12-29T16:56:45.883Z,12.30
2022-12-29T17:01:49.054Z,12.20
2022-12-29T17:06:51.649Z,11.40
2022-12-29T17:12:02.986Z,11.00
2022-12-29T17:17:35.861Z,10.40
2022-12-29T17:22:38.441Z,9.90
2022-12-29T17:27:49.171Z,9.80
2022-12-29T17:33:11.762Z,9.50
2022-12-29T17:38:24.063Z,9.50
2022-12-29T17:43:34.596Z,9.70
2022-12-29T17:48:39.135Z,10.50
2022-12-29T17:53:41.721Z,10.30
2022-12-29T17:58:46.143Z,9.60
2022-12-29T18:03:48.966Z,9.30
2022-12-29T18:08:51.848Z,9.00
2022-12-29T18:13:54.746Z,8.90
2022-12-29T18:18:57.458Z,8.80
2022-12-29T18:24:00.032Z,8.60
2022-12-29T18:29:02.596Z,8.50
2022-12-29T18:34:14.249Z,8.50
2022-12-29T18:39:16.755Z,8.40
2022-12-29T18:44:20.464Z,8.30
2022-12-29T18:49:23.525Z,8.30
2022-12-29T18:54:31.743Z,8.10
2022-12-29T18:59:34.291Z,8.10
2022-12-29T19:04:36.940Z,8.10
2022-12-29T19:09:39.366Z,8.00
2022-12-29T19:14:41.776Z,7.90
2022-12-29T19:19:44.242Z,8.00
2022-12-29T19:24:46.694Z,7.80
2022-12-29T19:29:49.920Z,7.80
2022-12-29T19:34:52.396Z,7.80
2022-12-29T19:39:54.963Z,7.80
2022-12-29T19:44:57.497Z,7.70
2022-12-29T19:50:01.196Z,7.60
2022-12-29T19:55:04.607Z,7.50
2022-12-29T20:00:08.162Z,7.50
2022-12-29T20:05:14.536Z,7.40
2022-12-29T20:10:17.285Z,7.40
2022-12-29T20:15:20.007Z,7.30
2022-12-29T20:20:22.489Z,7.20
2022-12-29T20:30:58.780Z,6.90
2022-12-29T20:36:15.413Z,6.80
2022-12-29T20:41:18.717Z,6.90
2022-12-29T20:46:25.235Z,7.00
2022-12-29T20:51:59.182Z,7.00
2022-12-29T20:56:55.444Z,7.00
2022-12-29T21:01:58.494Z,6.60
2022-12-29T21:07:01.150Z,6.30
2022-12-29T21:12:05.035Z,6.10
2022-12-29T21:17:07.837Z,6.00
2022-12-29T21:22:10.595Z,6.40
2022-12-29T21:27:13.289Z,6.50
2022-12-29T21:32:15.720Z,6.70
2022-12-29T21:37:23.372Z,7.30
2022-12-29T21:42:27.774Z,7.20
2022-12-29T21:47:53.797Z,7.20
2022-12-29T21:52:56.285Z,7.20
2022-12-29T21:58:28.018Z,7.40
2022-12-29T22:03:49.260Z,8.40
2022-12-29T22:09:10.454Z,9.20
2022-12-29T22:14:13.029Z,9.80
2022-12-29T22:19:16.324Z,9.30
2022-12-29T22:24:18.777Z,8.70
2022-12-29T22:29:21.484Z,8.30
2022-12-29T22:34:23.972Z,8.10
2022-12-29T22:39:26.584Z,7.90
2022-12-29T22:44:29.054Z,7.90
2022-12-29T22:49:31.615Z,7.90
2022-12-29T22:54:34.164Z,7.80
2022-12-29T22:59:36.753Z,8.20
2022-12-29T23:10:02.508Z,7.80
2022-12-29T23:15:05.891Z,7.50
2022-12-29T23:20:09.012Z,7.30
2022-12-29T23:25:11.529Z,7.20
2022-12-29T23:30:14.057Z,7.10
2022-12-29T23:35:16.710Z,7.10
2022-12-29T23:40:19.221Z,7.10
2022-12-29T23:45:21.838Z,7.10
2022-12-29T23:50:24.396Z,7.20
2022-12-29T23:55:26.961Z,7.10
